Time;durP1;ratioP1;P1;durP2;ratioP2;P2;SDS_P1;SDS_P2;PMS_P1;PMS_P2;Temp;Humidity;BMP_temperature;BMP_pressure;BME280_temperature;BME280_humidity;BME280_pressure;Samples;Min_cycle;Max_cycle;Signal;HPM_P1;HPM_P2
2023/07/03 00:00:12;;;;;;;21.30;12.30;;;13.90;99.90;;;;;;5015201;28;20037;-79
2023/07/03 00:02:41;;;;;;;22.00;13.25;;;13.80;99.90;;;;;;5015404;28;20026;-79
2023/07/03 00:05:08;;;;;;;19.25;12.45;;;13.80;99.90;;;;;;5015386;28;20078;-79
2023/07/03 00:07:35;;;;;;;23.95;13.43;;;13.70;99.90;;;;;;5015034;28;20109;-79
2023/07/03 00:10:00;;;;;;;21.70;12.30;;;13.70;99.90;;;;;;5015299;28;20057;-79
2023/07/03 00:12:26;;;;;;;23.27;11.73;;;13.60;99.90;;;;;;5015506;28;20049;-79
2023/07/03 00:14:52;;;;;;;22.92;12.50;;;13.60;99.90;;;;;;5015230;28;20025;-79
2023/07/03 00:17:18;;;;;;;27.02;12.75;;;13.60;99.90;;;;;;5015971;28;20041;-79
2023/07/03 00:19:44;;;;;;;21.67;12.48;;;13.50;99.90;;;;;;5015110;28;20079;-80
2023/07/03 00:22:09;;;;;;;23.50;12.13;;;13.60;99.90;;;;;;5014985;28;20743;-79
2023/07/03 00:24:35;;;;;;;21.48;12.75;;;13.60;99.90;;;;;;5015208;28;20069;-79
2023/07/03 00:27:01;;;;;;;20.50;11.63;;;13.60;99.90;;;;;;5015259;28;20034;-79
2023/07/03 00:29:31;;;;;;;22.45;12.18;;;13.60;99.90;;;;;;4997942;28;20120;-80
2023/07/03 00:31:58;;;;;;;22.08;13.00;;;13.60;99.90;;;;;;5028922;28;20037;-80
2023/07/03 00:34:26;;;;;;;23.35;12.60;;;13.60;99.90;;;;;;5023822;28;20037;-79
2023/07/03 00:36:53;;;;;;;23.92;12.68;;;13.70;99.90;;;;;;5012692;28;20428;-80
2023/07/03 00:39:19;;;;;;;20.20;13.10;;;13.80;99.90;;;;;;5029408;28;20044;-80
2023/07/03 00:41:45;;;;;;;20.73;11.73;;;13.80;99.90;;;;;;4996673;28;20527;-79
2023/07/03 00:44:13;;;;;;;22.13;13.23;;;13.90;99.90;;;;;;4996767;28;20091;-80
2023/07/03 00:46:40;;;;;;;22.90;12.88;;;13.90;99.90;;;;;;4996471;28;20030;-79
2023/07/03 00:49:07;;;;;;;21.67;12.65;;;14.00;99.90;;;;;;5021942;28;20034;-79
2023/07/03 00:51:33;;;;;;;23.33;12.38;;;14.00;99.90;;;;;;5014720;28;20022;-79
2023/07/03 00:53:59;;;;;;;20.42;11.68;;;14.10;99.90;;;;;;4996919;28;20447;-79
2023/07/03 00:56:24;;;;;;;23.45;11.98;;;14.10;99.90;;;;;;5015024;28;20034;-79
2023/07/03 00:58:50;;;;;;;20.45;12.27;;;14.10;99.90;;;;;;5012298;28;20407;-80
2023/07/03 01:01:34;;;;;;;24.15;12.60;;;14.20;99.90;;;;;;4992419;28;20113;-79
2023/07/03 01:04:34;;;;;;;21.42;11.48;;;14.20;99.90;;;;;;5009255;28;20043;-77
2023/07/03 01:07:04;;;;;;;22.08;12.55;;;14.20;99.90;;;;;;4981597;28;20038;-79
2023/07/03 01:09:36;;;;;;;22.63;12.32;;;14.30;99.90;;;;;;5014417;28;20033;-80
2023/07/03 01:12:03;;;;;;;23.98;11.85;;;14.40;99.90;;;;;;5013188;28;20065;-80
2023/07/03 01:14:30;;;;;;;23.55;12.55;;;14.30;99.90;;;;;;5013495;28;20030;-79
2023/07/03 01:16:57;;;;;;;23.67;12.50;;;14.40;99.90;;;;;;5013967;28;20026;-80
2023/07/03 01:19:31;;;;;;;22.15;13.18;;;14.40;99.90;;;;;;5014445;28;20109;-79
2023/07/03 01:22:13;;;;;;;21.17;11.63;;;14.40;99.90;;;;;;4995022;28;20129;-79
2023/07/03 01:24:54;;;;;;;18.55;11.70;;;14.40;99.90;;;;;;5012774;28;20042;-77
2023/07/03 01:27:23;;;;;;;23.65;12.82;;;14.40;99.90;;;;;;4995834;28;20374;-79
2023/07/03 01:29:51;;;;;;;19.88;11.90;;;14.40;99.90;;;;;;4995756;28;20021;-77
2023/07/03 01:32:23;;;;;;;19.00;12.13;;;14.40;99.90;;;;;;4994137;28;20044;-77
2023/07/03 01:34:53;;;;;;;27.25;13.75;;;14.40;99.90;;;;;;5010107;28;20041;-77
2023/07/03 01:37:24;;;;;;;20.67;12.32;;;14.40;99.90;;;;;;5011170;28;20122;-77
2023/07/03 01:39:51;;;;;;;21.00;12.65;;;14.40;99.90;;;;;;5008064;28;20720;-77
2023/07/03 01:42:18;;;;;;;21.52;12.50;;;14.40;99.90;;;;;;5005705;28;20030;-77
2023/07/03 01:44:44;;;;;;;22.95;12.52;;;14.30;99.90;;;;;;5011121;28;20034;-80
2023/07/03 01:47:12;;;;;;;22.75;12.98;;;14.30;99.90;;;;;;5011618;28;20076;-79
2023/07/03 01:49:38;;;;;;;22.70;12.63;;;14.30;99.90;;;;;;4996973;28;20026;-80
2023/07/03 01:52:04;;;;;;;19.77;12.57;;;14.20;99.90;;;;;;4988129;28;20044;-81
2023/07/03 01:54:42;;;;;;;24.75;13.18;;;14.20;99.90;;;;;;5014138;28;20044;-80
2023/07/03 01:57:10;;;;;;;24.63;13.32;;;14.20;99.90;;;;;;4996852;28;20030;-80
2023/07/03 01:59:37;;;;;;;25.30;12.70;;;14.20;99.90;;;;;;4980520;28;20451;-81
2023/07/03 02:02:15;;;;;;;25.67;13.52;;;14.10;99.90;;;;;;5004053;28;20034;-80
2023/07/03 02:04:49;;;;;;;22.33;12.90;;;14.10;99.90;;;;;;4992439;28;20026;-81
2023/07/03 02:07:16;;;;;;;20.33;11.77;;;14.10;99.90;;;;;;5011672;28;20033;-81
2023/07/03 02:09:42;;;;;;;23.88;13.32;;;14.00;99.90;;;;;;5010321;28;20026;-80
2023/07/03 02:12:09;;;;;;;26.20;12.98;;;14.10;99.90;;;;;;5004168;28;20033;-81
2023/07/03 02:14:38;;;;;;;22.67;12.98;;;14.00;99.90;;;;;;4995745;28;20700;-81
2023/07/03 02:17:06;;;;;;;25.17;13.52;;;14.00;99.90;;;;;;5027991;28;20101;-80
2023/07/03 02:19:33;;;;;;;24.13;13.75;;;14.00;99.90;;;;;;5013886;28;20034;-80
2023/07/03 02:22:00;;;;;;;24.15;13.50;;;14.00;99.90;;;;;;5028978;28;20021;-81
2023/07/03 02:24:26;;;;;;;24.42;13.23;;;14.00;99.90;;;;;;4983838;28;20030;-80
2023/07/03 02:26:53;;;;;;;25.48;13.90;;;13.90;99.90;;;;;;5017987;28;20510;-80
2023/07/03 02:29:19;;;;;;;25.58;13.10;;;13.90;99.90;;;;;;4996671;28;20154;-79
2023/07/03 02:31:45;;;;;;;25.98;12.88;;;13.90;99.90;;;;;;5032822;28;20537;-81
2023/07/03 02:34:11;;;;;;;23.15;13.43;;;13.80;99.90;;;;;;5007032;28;20087;-80
2023/07/03 02:36:38;;;;;;;26.52;13.43;;;13.80;99.90;;;;;;5017022;28;20033;-80
2023/07/03 02:39:05;;;;;;;24.98;12.95;;;13.70;99.90;;;;;;5017021;28;20071;-80
2023/07/03 02:41:32;;;;;;;27.17;13.02;;;13.60;99.90;;;;;;4999649;28;20177;-80
2023/07/03 02:43:58;;;;;;;26.25;13.32;;;13.60;99.90;;;;;;5016719;28;20025;-81
2023/07/03 02:46:25;;;;;;;21.55;12.80;;;13.50;99.90;;;;;;4999192;28;20099;-80
2023/07/03 02:48:52;;;;;;;24.67;12.95;;;13.40;99.90;;;;;;5032217;28;20240;-81
2023/07/03 02:51:19;;;;;;;23.35;12.65;;;13.40;99.90;;;;;;4984077;28;20511;-81
2023/07/03 02:53:47;;;;;;;21.65;12.15;;;13.30;99.90;;;;;;4999261;28;20034;-79
2023/07/03 02:56:15;;;;;;;24.17;12.63;;;13.30;99.90;;;;;;4999926;28;20125;-81
2023/07/03 02:58:43;;;;;;;22.88;13.20;;;13.20;99.90;;;;;;4999706;28;20033;-81
2023/07/03 03:01:13;;;;;;;20.83;12.35;;;13.30;99.90;;;;;;5032681;28;20057;-81
2023/07/03 03:03:39;;;;;;;22.25;12.55;;;13.30;99.90;;;;;;5037129;28;20034;-81
2023/07/03 03:06:06;;;;;;;24.73;12.52;;;13.30;99.90;;;;;;4988589;28;20026;-81
2023/07/03 03:08:32;;;;;;;26.83;12.60;;;13.30;99.90;;;;;;5031908;28;20064;-81
2023/07/03 03:10:59;;;;;;;20.35;12.15;;;13.30;99.90;;;;;;5006207;28;20464;-81
2023/07/03 03:13:24;;;;;;;23.58;11.85;;;13.40;99.90;;;;;;4997510;28;20069;-81
2023/07/03 03:15:54;;;;;;;22.58;12.52;;;13.40;99.90;;;;;;5028132;28;20091;-80
2023/07/03 03:18:21;;;;;;;23.05;12.32;;;13.40;99.90;;;;;;5024137;28;20025;-81
2023/07/03 03:20:47;;;;;;;27.45;13.90;;;13.40;99.90;;;;;;4989916;28;20112;-80
2023/07/03 03:23:13;;;;;;;24.02;13.15;;;13.50;99.90;;;;;;5013391;28;20057;-81
2023/07/03 03:25:39;;;;;;;20.63;12.45;;;13.50;99.90;;;;;;5027089;28;20732;-80
2023/07/03 03:28:05;;;;;;;27.00;12.65;;;13.50;99.90;;;;;;4985700;28;20061;-81
2023/07/03 03:30:31;;;;;;;23.73;13.18;;;13.50;99.90;;;;;;4997741;28;20034;-81
2023/07/03 03:32:57;;;;;;;24.45;11.70;;;13.50;99.90;;;;;;4997825;28;20078;-81
2023/07/03 03:35:23;;;;;;;20.40;12.38;;;13.50;99.90;;;;;;5013684;28;20093;-81
2023/07/03 03:37:49;;;;;;;27.80;12.52;;;13.50;99.90;;;;;;5028599;28;20034;-81
2023/07/03 03:40:15;;;;;;;24.98;12.35;;;13.50;99.90;;;;;;4998660;28;20076;-81
2023/07/03 03:42:41;;;;;;;19.73;12.18;;;13.50;99.90;;;;;;5021587;23;20057;-83
2023/07/03 03:45:07;;;;;;;21.55;12.88;;;13.50;99.90;;;;;;4952695;28;20043;-83
2023/07/03 03:47:33;;;;;;;19.80;12.05;;;13.50;99.90;;;;;;4971327;28;20089;-82
2023/07/03 03:50:00;;;;;;;22.17;11.90;;;13.50;99.90;;;;;;4963012;28;20023;-83
2023/07/03 03:52:26;;;;;;;26.77;13.77;;;13.50;99.90;;;;;;4972834;28;20684;-83
2023/07/03 03:54:52;;;;;;;20.50;12.05;;;13.50;99.90;;;;;;4986192;28;20106;-82
2023/07/03 03:57:18;;;;;;;24.23;12.35;;;13.60;99.90;;;;;;4975988;28;20053;-82
2023/07/03 03:59:44;;;;;;;24.00;13.00;;;13.60;99.90;;;;;;4972364;28;20030;-83
2023/07/03 04:02:11;;;;;;;25.67;12.85;;;13.60;99.90;;;;;;4976559;28;20027;-83
2023/07/03 04:04:36;;;;;;;21.20;12.35;;;13.60;99.90;;;;;;4962627;28;20034;-83
2023/07/03 04:07:03;;;;;;;21.63;12.25;;;13.60;99.90;;;;;;4970471;28;20400;-82
2023/07/03 04:09:29;;;;;;;24.98;12.48;;;13.70;99.90;;;;;;4978982;28;20038;-83
2023/07/03 04:11:55;;;;;;;18.70;11.43;;;13.80;99.90;;;;;;4970589;28;20031;-83
2023/07/03 04:14:21;;;;;;;22.65;11.50;;;13.80;99.90;;;;;;4971449;28;20412;-83
2023/07/03 04:16:48;;;;;;;22.67;12.95;;;13.90;99.90;;;;;;4959345;28;20026;-83
2023/07/03 04:19:18;;;;;;;23.20;12.20;;;14.00;99.90;;;;;;4951609;28;20050;-83
2023/07/03 04:21:44;;;;;;;22.75;11.73;;;14.00;99.90;;;;;;4971627;28;20054;-83
2023/07/03 04:24:10;;;;;;;23.83;12.68;;;14.10;99.90;;;;;;4971111;28;20058;-83
2023/07/03 04:26:40;;;;;;;22.02;12.00;;;14.10;99.90;;;;;;4975442;28;20456;-83
2023/07/03 04:29:05;;;;;;;22.10;12.75;;;14.20;99.90;;;;;;4965940;28;20046;-83
2023/07/03 04:31:33;;;;;;;21.08;11.63;;;14.20;99.90;;;;;;4964253;28;20114;-83
2023/07/03 04:33:59;;;;;;;20.58;12.07;;;14.20;99.90;;;;;;4964864;28;20043;-83
2023/07/03 04:36:25;;;;;;;22.33;12.60;;;14.30;99.90;;;;;;4970058;28;20424;-83
2023/07/03 04:38:57;;;;;;;25.48;12.50;;;14.30;99.90;;;;;;4962024;28;20063;-83
2023/07/03 04:41:29;;;;;;;22.88;11.60;;;14.40;99.90;;;;;;4975129;28;20031;-83
2023/07/03 04:43:58;;;;;;;23.08;11.98;;;14.40;99.90;;;;;;4969534;28;20027;-83
2023/07/03 04:46:27;;;;;;;22.05;11.88;;;14.50;99.90;;;;;;4971347;28;20019;-83
2023/07/03 04:48:59;;;;;;;21.65;12.20;;;14.50;99.90;;;;;;4971444;28;20074;-83
2023/07/03 04:51:30;;;;;;;21.92;11.18;;;14.50;99.90;;;;;;4976321;28;20118;-83
2023/07/03 04:53:58;;;;;;;23.02;10.82;;;14.50;99.90;;;;;;4969672;28;20113;-83
2023/07/03 04:56:24;;;;;;;20.52;11.88;;;14.60;99.90;;;;;;4967291;28;20069;-83
2023/07/03 04:58:51;;;;;;;21.67;11.38;;;14.60;99.90;;;;;;4971073;28;20090;-83
2023/07/03 05:01:17;;;;;;;17.73;11.65;;;14.60;99.90;;;;;;4956536;28;20058;-83
2023/07/03 05:03:43;;;;;;;20.30;11.80;;;14.60;99.90;;;;;;4954194;28;20031;-83
2023/07/03 05:06:10;;;;;;;20.02;11.90;;;14.70;99.90;;;;;;4975471;28;20027;-83
2023/07/03 05:08:36;;;;;;;25.27;11.98;;;14.70;99.90;;;;;;4969965;28;20023;-82
2023/07/03 05:11:02;;;;;;;20.45;11.23;;;14.70;99.90;;;;;;4974600;28;20158;-83
2023/07/03 05:13:28;;;;;;;23.13;11.60;;;14.70;99.90;;;;;;4967974;28;20526;-83
2023/07/03 05:15:54;;;;;;;21.75;11.70;;;14.70;99.90;;;;;;4975506;28;20027;-83
2023/07/03 05:18:20;;;;;;;23.35;11.70;;;14.70;99.90;;;;;;4970628;28;20121;-83
2023/07/03 05:20:48;;;;;;;23.13;11.30;;;14.70;99.90;;;;;;4958386;28;20508;-83
2023/07/03 05:23:15;;;;;;;25.08;12.07;;;14.80;99.90;;;;;;4961649;28;20054;-83
2023/07/03 05:25:46;;;;;;;18.70;11.30;;;14.80;99.90;;;;;;4966449;28;20528;-83
2023/07/03 05:28:12;;;;;;;22.58;11.40;;;14.80;99.90;;;;;;4969352;28;20555;-83
2023/07/03 05:30:38;;;;;;;22.88;11.05;;;14.80;99.90;;;;;;4962944;28;20096;-82
2023/07/03 05:33:04;;;;;;;23.70;12.02;;;14.80;99.90;;;;;;4970339;28;20030;-83
2023/07/03 05:35:30;;;;;;;22.48;11.18;;;14.80;99.90;;;;;;4972004;28;20448;-82
2023/07/03 05:37:56;;;;;;;20.30;10.50;;;14.80;99.90;;;;;;4973117;28;20046;-83
2023/07/03 05:40:22;;;;;;;21.45;11.00;;;14.90;99.90;;;;;;4955142;28;20093;-83
2023/07/03 05:42:48;;;;;;;17.63;10.90;;;14.90;99.90;;;;;;4970936;28;20491;-83
2023/07/03 05:45:14;;;;;;;20.25;11.45;;;14.90;99.90;;;;;;4970686;28;20022;-83
2023/07/03 05:47:39;;;;;;;20.48;10.35;;;14.90;99.90;;;;;;4969712;28;20094;-83
2023/07/03 05:50:06;;;;;;;20.67;10.90;;;15.00;99.90;;;;;;4953624;28;20445;-83
2023/07/03 05:52:33;;;;;;;19.50;10.93;;;15.00;99.90;;;;;;4972148;28;20405;-83
2023/07/03 05:54:59;;;;;;;19.25;10.45;;;15.10;99.90;;;;;;4966777;28;20027;-83
2023/07/03 05:57:25;;;;;;;20.52;11.02;;;15.10;99.90;;;;;;4967874;28;20023;-84
2023/07/03 05:59:51;;;;;;;18.83;11.32;;;15.20;99.90;;;;;;4970039;28;20085;-83
2023/07/03 06:02:17;;;;;;;22.17;11.57;;;15.20;99.90;;;;;;4961520;28;20034;-83
2023/07/03 06:04:42;;;;;;;19.90;10.65;;;15.30;99.90;;;;;;4951554;28;20034;-83
2023/07/03 06:07:10;;;;;;;21.80;12.05;;;15.30;99.90;;;;;;4972593;28;20038;-83
2023/07/03 06:09:37;;;;;;;21.65;11.10;;;15.40;99.90;;;;;;4954014;28;20512;-83
2023/07/03 06:12:04;;;;;;;21.65;11.85;;;15.50;99.90;;;;;;4969891;28;20472;-83
2023/07/03 06:14:31;;;;;;;20.38;11.82;;;15.50;99.90;;;;;;4972205;28;20034;-83
2023/07/03 06:16:58;;;;;;;18.90;10.95;;;15.60;99.90;;;;;;4954056;28;20034;-83
2023/07/03 06:19:25;;;;;;;23.70;11.77;;;15.70;99.90;;;;;;4972874;28;20031;-83
2023/07/03 06:21:50;;;;;;;21.25;11.50;;;15.70;99.90;;;;;;4977837;28;20038;-84
2023/07/03 06:24:17;;;;;;;19.70;10.95;;;15.90;99.90;;;;;;4972425;28;20034;-83
2023/07/03 06:26:43;;;;;;;21.40;11.80;;;16.00;99.90;;;;;;4978991;28;20034;-83
2023/07/03 06:29:10;;;;;;;22.70;10.98;;;16.10;99.90;;;;;;4956975;28;20045;-84
2023/07/03 06:31:37;;;;;;;22.20;11.77;;;16.20;99.90;;;;;;4961711;28;20035;-82
2023/07/03 06:34:03;;;;;;;19.80;10.90;;;16.40;99.90;;;;;;4963982;28;20050;-83
2023/07/03 06:36:29;;;;;;;20.58;11.82;;;16.50;99.90;;;;;;4970829;28;20396;-83
2023/07/03 06:38:57;;;;;;;21.42;12.05;;;16.70;99.90;;;;;;4971953;28;20543;-83
2023/07/03 06:41:26;;;;;;;21.35;11.02;;;16.80;99.90;;;;;;4976547;28;20027;-83
2023/07/03 06:43:52;;;;;;;25.40;12.38;;;17.00;99.90;;;;;;4980148;28;20043;-83
2023/07/03 06:46:19;;;;;;;21.40;10.55;;;17.10;99.90;;;;;;4974283;28;20030;-82
2023/07/03 06:48:45;;;;;;;20.27;11.20;;;17.20;99.90;;;;;;4973407;28;20058;-83
2023/07/03 06:51:13;;;;;;;22.10;11.55;;;17.40;99.90;;;;;;4978138;28;20058;-83
2023/07/03 06:53:39;;;;;;;23.85;11.68;;;17.60;99.90;;;;;;4979747;28;20508;-82
2023/07/03 06:56:06;;;;;;;21.30;11.35;;;17.80;99.90;;;;;;4969408;28;20034;-82
2023/07/03 06:58:33;;;;;;;23.52;12.05;;;17.90;99.90;;;;;;4973261;28;20035;-82
2023/07/03 07:01:06;;;;;;;22.13;11.80;;;18.10;99.90;;;;;;4976628;28;20042;-82
2023/07/03 07:03:32;;;;;;;21.08;10.52;;;18.30;99.90;;;;;;4972839;28;20023;-83
2023/07/03 07:05:58;;;;;;;20.17;10.52;;;18.40;99.90;;;;;;4971383;28;20038;-82
2023/07/03 07:08:23;;;;;;;21.83;11.35;;;18.70;99.90;;;;;;4999188;28;20027;-82
2023/07/03 07:10:49;;;;;;;21.63;10.90;;;18.90;99.90;;;;;;4973050;28;20096;-82
2023/07/03 07:13:15;;;;;;;20.95;11.43;;;19.10;99.90;;;;;;4965556;28;20041;-82
2023/07/03 07:15:41;;;;;;;19.05;10.63;;;19.30;99.90;;;;;;4971254;28;20105;-82
2023/07/03 07:18:08;;;;;;;21.08;10.35;;;19.50;99.90;;;;;;4955805;28;20101;-81
2023/07/03 07:20:39;;;;;;;20.02;11.00;;;19.70;99.90;;;;;;4976089;28;20080;-82
2023/07/03 07:23:06;;;;;;;21.85;12.02;;;19.80;99.90;;;;;;4970756;28;20378;-82
2023/07/03 07:25:31;;;;;;;23.25;13.15;;;20.00;99.90;;;;;;4969898;28;20031;-82
2023/07/03 07:27:57;;;;;;;26.23;11.35;;;20.10;99.70;;;;;;4973187;28;20037;-80
2023/07/03 07:30:23;;;;;;;19.83;10.50;;;20.20;99.90;;;;;;4967879;28;20030;-81
2023/07/03 07:32:52;;;;;;;23.27;10.90;;;20.50;99.50;;;;;;4974488;28;20031;-80
2023/07/03 07:35:18;;;;;;;23.10;10.82;;;20.70;99.30;;;;;;4974462;28;20095;-81
2023/07/03 07:37:44;;;;;;;24.27;10.55;;;21.00;99.90;;;;;;4970111;28;20053;-81
2023/07/03 07:40:11;;;;;;;23.83;10.73;;;21.30;96.80;;;;;;4974299;28;20516;-82
2023/07/03 07:42:37;;;;;;;18.23;9.85;;;21.50;93.90;;;;;;4968803;28;20031;-81
2023/07/03 07:45:04;;;;;;;21.02;10.30;;;21.60;93.80;;;;;;4962979;28;20035;-82
2023/07/03 07:47:30;;;;;;;15.40;9.43;;;21.60;94.90;;;;;;4972799;28;20457;-81
2023/07/03 07:49:58;;;;;;;18.05;9.80;;;21.70;93.10;;;;;;4971844;28;20236;-81
2023/07/03 07:52:24;;;;;;;18.27;9.45;;;21.90;95.60;;;;;;4977443;28;20047;-80
2023/07/03 07:54:54;;;;;;;19.40;10.07;;;22.00;89.20;;;;;;4973255;28;20050;-82
2023/07/03 07:57:20;;;;;;;22.20;10.77;;;22.10;93.00;;;;;;4974371;28;20035;-81
2023/07/03 07:59:46;;;;;;;21.27;9.35;;;22.10;95.50;;;;;;4965532;28;20118;-80
2023/07/03 08:02:12;;;;;;;16.92;9.32;;;22.30;92.30;;;;;;4968967;28;20041;-82
2023/07/03 08:04:37;;;;;;;20.65;9.52;;;22.60;89.00;;;;;;4971829;28;20113;-81
2023/07/03 08:07:04;;;;;;;22.05;9.75;;;23.00;89.40;;;;;;4977827;28;20094;-82
2023/07/03 08:09:29;;;;;;;19.50;9.73;;;23.20;83.70;;;;;;4971510;28;20023;-81
2023/07/03 08:11:55;;;;;;;17.00;9.43;;;23.10;84.90;;;;;;4977412;28;20038;-82
2023/07/03 08:14:21;;;;;;;24.70;10.18;;;23.10;85.70;;;;;;4963084;28;20118;-80
2023/07/03 08:16:47;;;;;;;18.65;9.82;;;22.80;87.10;;;;;;4975288;28;20117;-80
2023/07/03 08:19:12;;;;;;;21.23;9.27;;;22.70;89.10;;;;;;4971625;28;20035;-80
2023/07/03 08:21:38;;;;;;;15.77;9.27;;;22.60;87.20;;;;;;4972359;28;20042;-80
2023/07/03 08:24:04;;;;;;;19.02;10.70;;;22.50;90.80;;;;;;4972328;28;20089;-80
2023/07/03 08:26:31;;;;;;;23.52;12.40;;;22.40;92.40;;;;;;4972884;28;20027;-80
2023/07/03 08:28:57;;;;;;;18.20;9.27;;;22.50;91.20;;;;;;4970969;28;20031;-79
2023/07/03 08:31:23;;;;;;;23.17;10.02;;;22.50;89.60;;;;;;4970862;28;20075;-80
2023/07/03 08:33:48;;;;;;;17.02;9.15;;;22.30;90.50;;;;;;4969644;28;20788;-79
2023/07/03 08:36:14;;;;;;;23.33;10.73;;;22.20;89.70;;;;;;4970861;28;20135;-79
2023/07/03 08:38:40;;;;;;;18.70;9.85;;;21.90;86.90;;;;;;4972629;28;20392;-79
2023/07/03 08:41:10;;;;;;;19.02;9.88;;;21.60;89.80;;;;;;4975206;28;20030;-79
2023/07/03 08:44:02;;;;;;;19.42;10.05;;;21.30;88.60;;;;;;4963690;28;20023;-79
2023/07/03 08:46:31;;;;;;;21.73;9.93;;;20.90;90.00;;;;;;4967451;28;20054;-79
2023/07/03 08:49:03;;;;;;;20.52;10.07;;;20.80;92.20;;;;;;4973321;28;20030;-79
2023/07/03 08:51:32;;;;;;;22.55;10.32;;;21.10;91.30;;;;;;4975339;28;20031;-79
2023/07/03 08:54:15;;;;;;;22.33;10.40;;;21.30;91.50;;;;;;4970660;28;20559;-79
2023/07/03 08:56:40;;;;;;;18.40;10.18;;;21.60;92.60;;;;;;4968471;28;20031;-79
2023/07/03 08:59:06;;;;;;;25.00;10.25;;;21.80;91.10;;;;;;4971546;28;20039;-80
2023/07/03 09:01:44;;;;;;;23.38;9.95;;;21.80;90.90;;;;;;4977781;28;20045;-78
2023/07/03 09:04:40;;;;;;;18.23;10.07;;;21.70;88.10;;;;;;4965110;28;20023;-79
2023/07/03 09:07:13;;;;;;;20.77;10.48;;;21.50;90.60;;;;;;4969262;28;20098;-80
2023/07/03 09:09:39;;;;;;;17.40;9.57;;;21.30;89.60;;;;;;4971248;28;20086;-80
2023/07/03 09:12:13;;;;;;;19.02;9.98;;;21.00;91.40;;;;;;4972086;28;20074;-80
2023/07/03 09:14:46;;;;;;;15.15;8.98;;;20.90;92.30;;;;;;4957816;28;20026;-80
2023/07/03 09:17:12;;;;;;;20.95;9.60;;;20.70;92.50;;;;;;4975371;28;20045;-81
2023/07/03 09:19:44;;;;;;;16.88;9.27;;;20.60;92.90;;;;;;4966147;28;20043;-81
2023/07/03 09:22:23;;;;;;;16.80;9.00;;;20.50;92.70;;;;;;4973623;28;20026;-80
2023/07/03 09:24:53;;;;;;;19.38;7.68;;;20.30;92.90;;;;;;4967448;28;20039;-80
2023/07/03 09:27:23;;;;;;;21.27;8.75;;;20.30;91.80;;;;;;4969011;28;20050;-80
2023/07/03 09:29:50;;;;;;;21.40;9.10;;;20.30;92.40;;;;;;4968565;28;20171;-81
2023/07/03 09:32:29;;;;;;;21.27;8.30;;;20.50;93.80;;;;;;4977413;28;20467;-81
2023/07/03 09:35:20;;;;;;;18.83;9.02;;;20.60;94.30;;;;;;4966663;28;20034;-81
2023/07/03 09:37:52;;;;;;;17.02;8.10;;;20.80;93.40;;;;;;4966835;28;20432;-82
2023/07/03 09:40:26;;;;;;;16.88;7.78;;;20.90;93.60;;;;;;4969802;28;20030;-81
2023/07/03 09:42:53;;;;;;;18.58;7.82;;;20.90;92.00;;;;;;4972713;28;20023;-82
2023/07/03 09:45:21;;;;;;;18.02;7.35;;;20.80;92.80;;;;;;4997623;23;20366;-80
2023/07/03 09:47:50;;;;;;;12.98;6.93;;;20.80;92.40;;;;;;4985984;28;20118;-79
2023/07/03 09:50:24;;;;;;;16.58;7.82;;;20.80;93.00;;;;;;4980016;28;20626;-79
2023/07/03 09:52:54;;;;;;;22.50;7.75;;;20.90;92.90;;;;;;4971294;28;20033;-79
2023/07/03 09:55:21;;;;;;;18.67;7.22;;;20.80;92.80;;;;;;4988921;28;20038;-79
2023/07/03 09:57:47;;;;;;;16.25;7.88;;;20.80;90.10;;;;;;4994438;28;20042;-79
2023/07/03 10:00:17;;;;;;;18.23;7.25;;;20.80;92.00;;;;;;5006967;28;20077;-78
2023/07/03 10:03:01;;;;;;;15.93;7.45;;;20.80;91.20;;;;;;4985356;28;20607;-79
2023/07/03 10:05:32;;;;;;;15.50;7.55;;;20.80;90.90;;;;;;5001175;28;20041;-78
2023/07/03 10:08:03;;;;;;;17.80;8.15;;;20.90;91.10;;;;;;5005126;28;20030;-78
2023/07/03 10:10:33;;;;;;;14.90;7.45;;;20.90;91.40;;;;;;4998618;28;20053;-79
2023/07/03 10:13:10;;;;;;;13.27;6.93;;;20.90;90.70;;;;;;4992857;28;20026;-79
2023/07/03 10:15:41;;;;;;;14.40;6.60;;;20.90;91.70;;;;;;4991188;28;20029;-78
2023/07/03 10:18:23;;;;;;;13.52;5.97;;;21.00;90.80;;;;;;4979466;28;20022;-79
2023/07/03 10:20:50;;;;;;;18.52;6.50;;;21.10;90.50;;;;;;4980718;28;20034;-79
2023/07/03 10:23:25;;;;;;;17.20;5.85;;;21.00;89.80;;;;;;4984272;28;20472;-77
2023/07/03 10:26:04;;;;;;;15.20;6.07;;;20.90;83.70;;;;;;4995729;28;20150;-78
2023/07/03 10:28:45;;;;;;;14.40;5.78;;;20.80;86.60;;;;;;4993476;28;20018;-78
2023/07/03 10:31:23;;;;;;;12.18;5.75;;;20.70;85.20;;;;;;4983112;28;20314;-78
2023/07/03 10:33:58;;;;;;;15.75;6.05;;;20.60;89.00;;;;;;4993933;28;20026;-78
2023/07/03 10:36:27;;;;;;;15.32;5.85;;;20.30;90.80;;;;;;5003416;28;20504;-79
2023/07/03 10:39:05;;;;;;;15.55;5.70;;;20.20;91.00;;;;;;5004081;28;20033;-78
2023/07/03 10:41:50;;;;;;;15.05;6.30;;;20.10;91.90;;;;;;4994086;28;20030;-78
2023/07/03 10:44:18;;;;;;;;;;;20.10;90.60;;;;;;5001349;28;20034;-79
2023/07/03 10:46:54;;;;;;;12.63;6.28;;;20.10;92.20;;;;;;4996946;28;19996;-78
2023/07/03 10:49:32;;;;;;;10.98;6.07;;;20.30;92.90;;;;;;5007614;28;20026;-80
2023/07/03 10:52:33;;;;;;;15.18;5.80;;;20.40;91.70;;;;;;4997209;28;20045;-80
2023/07/03 10:55:22;;;;;;;20.98;6.80;;;20.60;90.40;;;;;;4998170;28;20129;-78
2023/07/03 10:58:26;;;;;;;14.13;6.90;;;20.90;90.30;;;;;;5006832;28;20639;-79
2023/07/03 11:01:02;;;;;;;12.18;6.07;;;21.10;87.40;;;;;;5000328;28;20034;-80
2023/07/03 11:03:52;;;;;;;17.27;7.30;;;21.30;89.70;;;;;;4996164;28;20129;-80
2023/07/03 11:06:28;;;;;;;14.70;6.60;;;21.50;88.00;;;;;;4981387;28;20023;-78
2023/07/03 11:09:06;;;;;;;13.93;6.50;;;21.60;86.20;;;;;;4987515;28;20500;-78
2023/07/03 11:11:44;;;;;;;17.42;6.40;;;21.80;90.00;;;;;;4989461;28;20046;-79
2023/07/03 11:14:34;;;;;;;16.80;6.68;;;22.00;89.10;;;;;;4987731;28;20042;-81
2023/07/03 11:17:12;;;;;;;12.55;5.75;;;22.20;86.00;;;;;;4986912;28;20027;-78
2023/07/03 11:20:02;;;;;;;13.68;6.57;;;22.10;87.10;;;;;;4991778;28;20033;-77
2023/07/03 11:22:54;;;;;;;13.77;5.93;;;21.90;86.00;;;;;;4990817;28;20022;-79
2023/07/03 11:25:21;;;;;;;12.35;5.50;;;21.80;83.80;;;;;;4985343;28;20041;-78
2023/07/03 11:27:59;;;;;;;15.27;5.97;;;21.60;83.00;;;;;;5004110;28;20038;-78
2023/07/03 11:30:26;;;;;;;14.38;6.32;;;21.50;85.80;;;;;;4994712;28;20756;-79
2023/07/03 11:32:53;;;;;;;15.55;6.10;;;21.50;87.70;;;;;;4989323;28;20377;-78
2023/07/03 11:35:25;;;;;;;13.60;5.72;;;21.60;87.60;;;;;;4993991;28;20026;-77
2023/07/03 11:38:09;;;;;;;15.98;5.30;;;21.70;88.80;;;;;;4993669;28;20254;-78
2023/07/03 11:40:53;;;;;;;10.80;4.88;;;21.80;84.90;;;;;;4993526;28;20551;-77
2023/07/03 11:43:35;;;;;;;14.40;4.90;;;21.70;83.80;;;;;;4991475;28;20452;-80
2023/07/03 11:46:06;;;;;;;13.02;5.70;;;21.80;85.00;;;;;;4989322;28;20034;-79
2023/07/03 11:48:38;;;;;;;9.55;4.95;;;21.80;88.30;;;;;;5001788;28;20085;-79
2023/07/03 11:51:11;;;;;;;15.10;5.47;;;21.90;88.00;;;;;;5001615;28;20033;-79
2023/07/03 11:53:43;;;;;;;14.02;4.72;;;22.00;84.10;;;;;;4996007;28;20026;-80
2023/07/03 11:56:30;;;;;;;9.60;4.05;;;22.10;83.10;;;;;;4991781;28;20030;-80
2023/07/03 11:59:09;;;;;;;11.63;4.93;;;22.10;79.80;;;;;;4991422;28;20036;-81
2023/07/03 12:01:36;;;;;;;7.25;4.40;;;22.10;84.20;;;;;;4990879;28;20030;-79
2023/07/03 12:04:07;;;;;;;10.20;3.25;;;22.10;79.00;;;;;;4975932;28;20622;-79
2023/07/03 12:06:38;;;;;;;5.90;2.95;;;22.20;80.90;;;;;;4980936;28;20026;-82
2023/07/03 12:09:24;;;;;;;6.47;3.13;;;22.50;78.50;;;;;;4996746;28;20535;-79
2023/07/03 12:12:06;;;;;;;9.10;2.72;;;22.70;82.00;;;;;;4998127;28;20388;-78
2023/07/03 12:17:18;;;;;;;4.72;2.63;;;22.70;78.80;;;;;;5007280;28;20499;-79
2023/07/03 12:19:46;;;;;;;6.65;2.55;;;22.60;78.70;;;;;;5004904;28;20112;-79
2023/07/03 12:22:17;;;;;;;5.35;2.42;;;22.50;79.30;;;;;;5001579;28;20060;-78
2023/07/03 12:24:43;;;;;;;3.88;1.88;;;22.60;80.00;;;;;;5001808;28;20110;-79
2023/07/03 12:27:09;;;;;;;4.90;2.10;;;22.60;79.70;;;;;;5003507;28;20454;-78
2023/07/03 12:29:43;;;;;;;5.72;1.75;;;22.60;80.70;;;;;;4986733;28;20124;-79
2023/07/03 12:32:09;;;;;;;7.70;2.15;;;22.50;74.70;;;;;;5003346;28;20130;-78
2023/07/03 12:34:38;;;;;;;5.95;1.83;;;22.50;78.70;;;;;;5011685;28;20062;-78
2023/07/03 12:37:12;;;;;;;7.63;2.00;;;22.60;71.60;;;;;;5006332;28;20038;-79
2023/07/03 12:39:38;;;;;;;3.38;1.83;;;22.80;78.70;;;;;;5004472;28;20026;-78
2023/07/03 12:42:14;;;;;;;4.40;2.03;;;23.10;75.60;;;;;;5002093;28;20065;-78
2023/07/03 12:44:39;;;;;;;2.80;1.35;;;23.10;69.50;;;;;;4999829;28;20030;-77